createdAt,value
2019-03-03T01:06:52.234Z,6.93
2019-03-03T05:29:58.572Z,4.40
2019-03-03T05:33:41.959Z,2.87
2019-03-03T05:40:10.701Z,1.63
2019-03-03T05:42:58.835Z,2.10
2019-03-03T05:49:18.069Z,1.43
2019-03-03T05:52:11.335Z,1.00
2019-03-03T05:55:03.989Z,0.80
2019-03-03T06:01:00.955Z,0.33
2019-03-03T06:03:54.148Z,2.37
2019-03-03T06:06:42.635Z,0.30
2019-03-03T06:09:31.574Z,0.33
2019-03-03T06:12:20.377Z,0.40
2019-03-03T06:15:09.722Z,0.30
2019-03-03T06:17:56.970Z,0.20
2019-03-03T06:20:44.796Z,0.20
2019-03-03T06:23:32.433Z,0.20
2019-03-03T06:26:20.173Z,0.27
2019-03-03T06:29:08.051Z,0.13
2019-03-03T06:31:56.059Z,0.73
2019-03-03T06:34:44.084Z,0.60
2019-03-03T06:37:32.211Z,1.10
2019-03-03T06:40:21.326Z,0.43
2019-03-03T06:43:11.196Z,0.40
2019-03-03T06:46:00.103Z,0.60
2019-03-03T06:48:48.760Z,0.43
2019-03-03T06:51:36.657Z,0.67
2019-03-03T06:54:24.386Z,0.83
2019-03-03T06:57:12.642Z,0.47
2019-03-03T07:00:00.653Z,0.50
2019-03-03T07:02:49.142Z,1.17
2019-03-03T07:05:37.789Z,1.07
2019-03-03T07:08:25.864Z,0.93
2019-03-03T07:11:13.896Z,0.90
2019-03-03T07:14:01.646Z,1.23
2019-03-03T07:16:49.707Z,1.60
2019-03-03T07:19:37.562Z,0.47
2019-03-03T07:22:25.718Z,1.70
2019-03-03T07:25:13.773Z,1.33
2019-03-03T07:28:01.525Z,0.60
2019-03-03T07:30:49.567Z,0.50
2019-03-03T07:33:40.449Z,0.97
2019-03-03T07:36:28.795Z,0.77
2019-03-03T07:39:18.027Z,0.50
2019-03-03T07:42:06.902Z,0.30
2019-03-03T07:44:58.253Z,0.50
2019-03-03T07:47:46.675Z,0.87
2019-03-03T07:50:34.320Z,0.30
2019-03-03T07:53:22.042Z,0.20
2019-03-03T07:56:09.898Z,0.60
2019-03-03T07:58:57.950Z,0.37
2019-03-03T08:01:46.217Z,0.43
2019-03-03T08:04:34.039Z,0.60
2019-03-03T08:07:21.670Z,1.30
2019-03-03T08:10:12.088Z,0.40
2019-03-03T08:13:08.952Z,0.50
2019-03-03T08:15:56.049Z,0.20
2019-03-03T08:18:44.350Z,0.57
2019-03-03T08:21:32.611Z,0.43
2019-03-03T08:24:20.712Z,0.23
2019-03-03T08:27:08.584Z,0.30
2019-03-03T08:29:56.664Z,0.30
2019-03-03T08:32:45.320Z,1.33
2019-03-03T08:35:33.120Z,0.33
2019-03-03T08:38:20.854Z,0.50
2019-03-03T08:41:08.856Z,0.10
2019-03-03T08:44:09.469Z,0.60
2019-03-03T08:47:16.826Z,0.20
2019-03-03T08:50:14.929Z,0.57
2019-03-03T08:53:29.513Z,0.20
2019-03-03T08:56:33.461Z,0.20
2019-03-03T08:59:28.437Z,0.30
2019-03-03T09:02:26.199Z,0.10
2019-03-03T09:05:32.528Z,0.23
2019-03-03T09:08:45.802Z,0.57
2019-03-03T09:11:45.520Z,1.60
2019-03-03T09:14:55.023Z,0.30
2019-03-03T09:18:04.768Z,0.17
2019-03-03T09:21:09.864Z,0.33
2019-03-03T09:24:20.964Z,0.40
2019-03-03T09:27:30.440Z,0.47
2019-03-03T09:30:42.793Z,0.50
2019-03-03T09:33:49.517Z,2.00
2019-03-03T09:36:49.501Z,1.53
2019-03-03T09:39:57.010Z,0.53
2019-03-03T09:42:55.473Z,0.60
2019-03-03T09:46:01.913Z,0.87
2019-03-03T09:49:06.887Z,0.50
2019-03-03T09:52:17.180Z,0.70
2019-03-03T09:55:32.892Z,0.23
2019-03-03T09:58:41.791Z,0.30
2019-03-03T10:01:49.368Z,0.53
2019-03-03T10:04:45.826Z,0.40
2019-03-03T10:08:10.463Z,0.20
2019-03-03T10:11:31.480Z,0.53
2019-03-03T10:14:33.876Z,0.50
2019-03-03T10:17:28.846Z,0.30
2019-03-03T10:20:27.005Z,0.53
2019-03-03T10:23:39.862Z,0.83
2019-03-03T10:26:45.612Z,0.37
2019-03-03T10:30:01.467Z,1.67
2019-03-03T10:33:20.617Z,0.30
2019-03-03T10:36:26.397Z,0.30
2019-03-03T10:39:33.129Z,0.40
2019-03-03T10:42:31.317Z,0.50
2019-03-03T10:45:36.556Z,0.20
2019-03-03T10:48:38.992Z,0.30
2019-03-03T10:51:41.640Z,0.40
2019-03-03T10:54:57.771Z,0.77
2019-03-03T10:57:54.783Z,0.30
2019-03-03T11:00:57.295Z,0.60
2019-03-03T11:04:07.180Z,0.20
2019-03-03T11:07:07.844Z,0.53
2019-03-03T11:10:29.505Z,0.73
2019-03-03T11:13:47.616Z,0.20
2019-03-03T11:16:46.705Z,0.37
2019-03-03T11:19:58.883Z,0.30
2019-03-03T11:23:24.078Z,1.13
2019-03-03T11:26:49.198Z,0.40
2019-03-03T11:29:59.089Z,0.77
2019-03-03T11:33:01.107Z,0.67
2019-03-03T11:36:17.719Z,0.47
2019-03-03T11:39:29.213Z,0.23
2019-03-03T11:42:43.703Z,1.33
2019-03-03T11:46:05.794Z,0.73
2019-03-03T11:49:12.729Z,0.20
2019-03-03T11:52:31.837Z,0.53
2019-03-03T11:55:50.450Z,0.10
2019-03-03T11:58:54.019Z,0.20
2019-03-03T12:02:02.982Z,0.87
2019-03-03T12:05:10.538Z,0.40
2019-03-03T12:08:20.285Z,0.20
2019-03-03T12:11:18.716Z,0.43
2019-03-03T12:14:31.460Z,0.20
2019-03-03T12:17:44.110Z,0.77
2019-03-03T12:21:03.134Z,0.43
2019-03-03T12:24:00.814Z,0.17
2019-03-03T12:27:10.359Z,0.20
2019-03-03T12:30:06.069Z,0.47
2019-03-03T12:33:09.783Z,0.30
2019-03-03T12:36:26.370Z,0.10
2019-03-03T12:39:25.022Z,0.63
2019-03-03T12:42:24.406Z,1.03
2019-03-03T12:45:34.451Z,0.80
2019-03-03T12:48:59.376Z,0.77
2019-03-03T12:52:21.312Z,0.50
2019-03-03T12:55:18.975Z,0.83
2019-03-03T12:58:31.665Z,0.20
2019-03-03T13:01:37.835Z,0.40
2019-03-03T13:04:45.057Z,0.20
2019-03-03T13:07:48.976Z,0.20
2019-03-03T13:10:58.641Z,0.70
2019-03-03T13:14:05.609Z,0.10
2019-03-03T13:17:08.735Z,0.20
2019-03-03T13:20:11.316Z,0.30
2019-03-03T13:23:18.236Z,1.63
2019-03-03T13:26:27.918Z,0.10
2019-03-03T13:29:33.489Z,0.70
2019-03-03T13:32:38.274Z,0.20
2019-03-03T13:35:42.456Z,2.77
2019-03-03T13:38:45.492Z,0.40
2019-03-03T13:41:42.977Z,0.50
2019-03-03T13:44:35.774Z,0.23
2019-03-03T13:47:24.540Z,0.20
2019-03-03T13:50:15.123Z,0.60
2019-03-03T13:53:08.990Z,1.03
2019-03-03T13:55:59.503Z,0.40
2019-03-03T13:58:53.351Z,0.83
2019-03-03T14:05:23.744Z,0.37
2019-03-03T14:12:13.263Z,1.13
2019-03-03T14:25:43.011Z,0.50
2019-03-03T14:32:01.349Z,0.40
2019-03-03T14:39:04.914Z,0.30
2019-03-03T15:50:14.974Z,0.10
2019-03-03T15:53:21.539Z,0.10
2019-03-03T15:56:24.675Z,0.40
2019-03-03T16:44:10.203Z,1.00
2019-03-03T16:46:57.758Z,0.70
2019-03-03T16:49:45.552Z,1.17
2019-03-03T17:27:17.649Z,0.77
2019-03-03T17:30:17.256Z,0.70
2019-03-03T19:33:58.569Z,1.10
2019-03-03T19:47:14.280Z,0.97
2019-03-03T20:46:32.487Z,1.40
2019-03-03T21:20:32.707Z,2.30
2019-03-03T21:23:21.934Z,2.23
2019-03-03T21:26:09.953Z,1.47
2019-03-03T21:29:00.777Z,2.20
2019-03-03T21:31:50.177Z,2.80
2019-03-03T21:34:38.547Z,1.53
2019-03-03T21:37:26.688Z,2.20
2019-03-03T21:40:15.245Z,2.23
2019-03-03T21:43:03.382Z,1.57
2019-03-03T21:45:51.998Z,2.87
2019-03-03T21:48:39.596Z,2.03
2019-03-03T21:51:27.575Z,2.37
2019-03-03T21:54:15.733Z,1.97
2019-03-03T21:57:13.941Z,1.80
2019-03-03T22:00:02.257Z,1.67
2019-03-03T22:02:53.756Z,2.07
2019-03-03T22:16:43.388Z,1.80
2019-03-03T22:27:14.222Z,1.27
2019-03-03T22:30:48.541Z,3.43
2019-03-03T23:05:53.658Z,1.57
2019-03-03T23:09:17.414Z,2.13
2019-03-03T23:42:00.173Z,2.23
2019-03-03T23:44:48.740Z,1.57
2019-03-03T23:54:13.117Z,1.37
